• Join FlightAware (Why Join?)
  • Login
  • US Flag 
08:22AM EDT


 

Airport Tracker/Info


-or-


 

Live Flight TrackerFlight Track Log ✈ WBR2907 ✈ 26-Oct-2013 ✈ KBRL - KSTL

Flight Track Log - Related Links

Times and Time Zones

All times are in EDT time to prevent confusion due to time zone crossing. See the WBR2907 flight status page for this flight to view local times or setup timezone preferences in your user account.

Time Position Orientation Groundspeed Altitude Reporting Facility
EDT Latitude Longitude Course Direction KTS MPH feet Rate Location/Type
08:38AM 40.7119 -91.1044 164° South 138 159 2,400  Level Kansas City Center
08:39AM 40.6728 -91.0914 166° South 143 165 3,000 720 Climbing Chicago Center
08:40AM 40.6267 -91.0756 165° South 144 166 4,000 780 Climbing Chicago Center
08:41AM 40.3019 -90.9426 163° South  Level Estimated
08:42AM 40.2582 -90.9260 164° South  Level Estimated
08:42AM 40.5897 -91.0578 160° South 143 165 4,700  Level Chicago Center
08:43AM 40.2145 -90.9093 164° South  Level FlightAware Approximate
08:43AM 40.5492 -91.0394 161° South 147 169 4,900  Level Chicago Center
08:44AM 40.1707 -90.8927 164° South  Level FlightAware Approximate
08:44AM 40.5072 -91.0208 161° South 156 180 4,900  Level Chicago Center
08:45AM 40.4600 -91.0036 164° South 168 193 4,900  Level Chicago Center
08:46AM 40.4150 -90.9947 171° South 166 191 4,900  Level Chicago Center
08:47AM 40.3747 -90.9764 161° South 156 180 5,000  Climbing Kansas City Center
08:48AM 40.3319 -90.9617 165° South 156 180 5,000  Level Kansas City Center
08:49AM 40.2914 -90.9497 167° South 155 178 5,000  Level Kansas City Center
08:50AM 40.2478 -90.9322 163° South 157 181 5,000  Level Kansas City Center
08:51AM 40.2047 -90.9186 166° South 159 183 5,000  Level Kansas City Center
08:52AM 40.1608 -90.9042 166° South 160 184 5,000  Level Kansas City Center
08:53AM 40.1186 -90.8853 161° South 161 185 5,000  Level Kansas City Center
08:54AM 40.0775 -90.8644 159° South 160 184 5,000  Level Kansas City Center
08:55AM 40.0258 -90.8489 167° South 160 184 5,000  Level Kansas City Center
08:56AM 39.9856 -90.8339 164° South 153 176 5,000  Level Kansas City Center
08:57AM 39.9436 -90.8169 163° South 156 180 5,000  Level Kansas City Center
08:58AM 39.9025 -90.8031 165° South 154 177 5,000  Level Kansas City Center
08:59AM 39.8606 -90.7894 166° South 154 177 5,000  Level Kansas City Center
09:00AM 39.8192 -90.7717 162° South 156 180 5,000  Level Kansas City Center
09:01AM 39.7769 -90.7539 162° South 159 183 5,000  Level Kansas City Center
09:02AM 39.7367 -90.7325 158° South 162 186 5,000  Level Kansas City Center
09:03AM 39.6928 -90.7225 170° South 161 185 5,000  Level Kansas City Center
09:04AM 39.6514 -90.7042 161° South 158 182 5,000  Level Kansas City Center
09:05AM 39.6003 -90.6847 164° South 158 182 5,000  Level Kansas City Center
09:06AM 39.5583 -90.6692 164° South 157 181 5,000  Level Kansas City Center
09:07AM 39.5164 -90.6525 163° South 157 181 5,000  Level Kansas City Center
09:08AM 39.4742 -90.6394 167° South 157 181 5,100  Climbing Kansas City Center
09:09AM 39.4314 -90.6258 166° South 157 181 5,100  Level Kansas City Center
09:10AM 39.3933 -90.5953 148° Southeast 158 182 5,100  Level Kansas City Center
09:11AM 39.3561 -90.5614 145° Southeast 162 186 5,100  Level Kansas City Center
09:12AM 39.3178 -90.5344 151° Southeast 159 183 5,100  Level Kansas City Center
09:13AM 39.2789 -90.5089 153° Southeast 157 181 5,100  Level Kansas City Center
09:14AM 39.2400 -90.4817 152° Southeast 158 182 5,100  Level Kansas City Center
09:15AM 39.2028 -90.4539 150° Southeast 156 180 5,100  Level Kansas City Center
09:16AM 39.1653 -90.4233 148° Southeast 157 181 5,100  Level Kansas City Center
09:17AM 39.1203 -90.3856 147° Southeast 159 183 5,100  Level Kansas City Center
09:18AM 39.0819 -90.3589 152° Southeast 159 183 5,100  Level Kansas City Center
09:19AM 39.0436 -90.3336 153° Southeast 157 181 5,100 -120 Level Kansas City Center
09:20AM 39.0069 -90.3067 150° Southeast 154 177 4,900 -300 Descending Kansas City Center
09:21AM 38.9672 -90.2764 149° Southeast 159 183 4,600 -480 Descending Kansas City Center
09:22AM 38.9214 -90.2547 160° South 168 193 4,000 -600 Descending Kansas City Center
09:23AM 38.8736 -90.2364 163° South 174 200 3,400 -600 Descending Kansas City Center
09:24AM 38.8283 -90.2336 177° South 168 193 2,800 -540 Descending Kansas City Center
09:25AM 38.8008 -90.2508 206° Southwest 128 147 2,400 -480 Descending Kansas City Center
09:26AM 38.7875 -90.2783 238° Southwest 104 120 1,900 -540 Descending Kansas City Center
09:27AM 38.7750 -90.3106 244° Southwest 100 115 1,400 -660 Descending Kansas City Center
09:28AM 38.7586 -90.3533 244° Southwest 107 123 600 -840 Descending Kansas City Center